createdAt,value
2023-01-30T00:01:57.256Z,3.47
2023-01-30T00:04:26.639Z,3.47
2023-01-30T00:06:55.711Z,3.52
2023-01-30T00:09:23.383Z,3.48
2023-01-30T00:11:51.126Z,3.36
2023-01-30T00:14:18.925Z,3.30
2023-01-30T00:16:46.653Z,3.21
2023-01-30T00:19:14.381Z,3.19
2023-01-30T00:21:42.078Z,3.11
2023-01-30T00:24:11.426Z,3.03
2023-01-30T00:26:39.167Z,2.98
2023-01-30T00:29:06.851Z,2.98
2023-01-30T00:31:34.522Z,2.91
2023-01-30T00:34:02.236Z,2.85
2023-01-30T00:36:30.003Z,2.80
2023-01-30T00:38:58.559Z,2.78
2023-01-30T00:41:50.487Z,2.71
2023-01-30T00:44:35.794Z,2.79
2023-01-30T00:47:09.175Z,2.90
2023-01-30T00:49:37.236Z,2.97
2023-01-30T00:52:05.696Z,2.98
2023-01-30T00:54:33.599Z,3.00
2023-01-30T00:57:02.702Z,2.94
2023-01-30T00:59:30.387Z,2.97
2023-01-30T01:01:58.148Z,3.01
2023-01-30T01:04:25.983Z,2.85
2023-01-30T01:06:53.646Z,2.94
2023-01-30T01:09:21.399Z,2.88
2023-01-30T01:11:49.142Z,2.92
2023-01-30T01:14:18.234Z,3.11
2023-01-30T01:16:46.159Z,3.14
2023-01-30T01:19:13.826Z,3.13
2023-01-30T01:21:41.494Z,3.00
2023-01-30T01:24:13.820Z,2.88
2023-01-30T01:26:41.767Z,2.83
2023-01-30T01:29:13.354Z,2.94
2023-01-30T01:31:42.615Z,2.98
2023-01-30T01:34:10.489Z,3.02
2023-01-30T01:36:54.806Z,3.15
2023-01-30T01:39:23.419Z,3.29
2023-01-30T01:41:50.171Z,3.45
2023-01-30T01:44:18.001Z,3.47
2023-01-30T01:46:52.004Z,3.55
2023-01-30T01:49:23.870Z,3.54
2023-01-30T01:51:57.224Z,3.51
2023-01-30T01:54:30.601Z,3.50
2023-01-30T01:56:58.382Z,3.56
2023-01-30T01:59:31.248Z,3.66
2023-01-30T02:02:04.967Z,3.67
2023-01-30T02:04:48.038Z,3.65
2023-01-30T02:07:19.072Z,3.61
2023-01-30T02:09:46.885Z,3.72
2023-01-30T02:12:16.404Z,3.74
2023-01-30T02:14:45.245Z,3.64
2023-01-30T02:17:14.252Z,3.58
2023-01-30T02:19:50.759Z,3.62
2023-01-30T02:22:45.821Z,3.67
2023-01-30T02:25:27.497Z,3.66
2023-01-30T02:28:33.231Z,3.64
2023-01-30T02:31:18.410Z,3.59
2023-01-30T02:33:57.217Z,3.63
2023-01-30T02:36:31.622Z,3.72
2023-01-30T02:39:08.240Z,3.71
2023-01-30T02:41:45.337Z,3.79
2023-01-30T02:44:19.148Z,3.78
2023-01-30T02:46:55.464Z,3.73
2023-01-30T02:49:30.113Z,3.57
2023-01-30T02:52:00.355Z,3.46
2023-01-30T02:54:28.371Z,3.34
2023-01-30T02:56:59.770Z,3.36
2023-01-30T02:59:32.531Z,3.34
2023-01-30T03:02:33.850Z,3.31
2023-01-30T03:05:21.042Z,3.29
2023-01-30T03:07:56.576Z,3.23
2023-01-30T03:10:33.977Z,3.17
2023-01-30T03:13:06.501Z,3.09
2023-01-30T03:15:36.603Z,3.03
2023-01-30T03:18:06.114Z,3.10
2023-01-30T03:20:38.471Z,3.15
2023-01-30T03:23:06.206Z,3.25
2023-01-30T03:25:36.949Z,3.22
2023-01-30T03:28:07.831Z,3.24
2023-01-30T03:30:35.571Z,3.20
2023-01-30T03:33:03.262Z,3.12
2023-01-30T03:35:32.410Z,3.10
2023-01-30T03:38:00.301Z,3.07
2023-01-30T03:40:28.151Z,3.05
2023-01-30T03:42:55.859Z,3.27
2023-01-30T03:45:23.530Z,3.34
2023-01-30T03:47:51.928Z,3.45
2023-01-30T03:50:19.663Z,3.45
2023-01-30T03:52:48.729Z,3.55
2023-01-30T03:55:17.050Z,3.63
2023-01-30T03:57:45.008Z,3.67
2023-01-30T04:00:13.471Z,3.73
2023-01-30T04:02:41.230Z,3.66
2023-01-30T04:05:09.105Z,3.69
2023-01-30T04:07:36.803Z,3.73
2023-01-30T04:10:06.761Z,3.84
2023-01-30T04:12:34.455Z,3.71
2023-01-30T04:15:02.180Z,3.64
2023-01-30T04:17:29.847Z,3.64
2023-01-30T04:19:57.527Z,3.67
2023-01-30T04:22:25.205Z,3.70
2023-01-30T04:24:52.865Z,3.71
2023-01-30T04:27:21.914Z,3.75
2023-01-30T04:29:49.612Z,3.78
2023-01-30T04:32:17.303Z,3.82
2023-01-30T04:34:45.229Z,3.77
2023-01-30T04:37:14.761Z,3.82
2023-01-30T04:39:42.424Z,3.76
2023-01-30T04:42:10.103Z,3.66
2023-01-30T04:44:39.193Z,3.71
2023-01-30T04:47:06.927Z,3.72
2023-01-30T04:49:34.627Z,3.79
2023-01-30T04:52:02.295Z,3.66
2023-01-30T04:54:31.767Z,3.67
2023-01-30T04:56:59.546Z,3.72
2023-01-30T04:59:27.243Z,3.74
2023-01-30T05:01:56.839Z,3.74
2023-01-30T05:04:24.799Z,3.73
2023-01-30T05:06:52.474Z,3.79
2023-01-30T05:09:20.193Z,3.78
2023-01-30T05:11:49.828Z,3.72
2023-01-30T05:14:17.590Z,3.63
2023-01-30T05:16:45.190Z,3.75
2023-01-30T05:19:14.415Z,3.75
2023-01-30T05:21:42.082Z,3.67
2023-01-30T05:24:09.859Z,3.72
2023-01-30T05:26:37.774Z,3.73
2023-01-30T05:29:05.511Z,3.82
2023-01-30T05:31:35.221Z,3.89
2023-01-30T05:34:02.934Z,3.91
2023-01-30T05:36:31.956Z,3.89
2023-01-30T05:38:59.580Z,3.88
2023-01-30T05:41:27.309Z,3.92
2023-01-30T05:43:55.002Z,3.83
2023-01-30T05:46:22.708Z,3.84
2023-01-30T05:48:50.425Z,3.85
2023-01-30T05:51:20.271Z,3.90
2023-01-30T05:53:49.545Z,3.93
2023-01-30T05:56:17.701Z,3.97
2023-01-30T05:58:50.691Z,3.89
2023-01-30T06:01:18.386Z,3.94
2023-01-30T06:03:46.189Z,4.01
2023-01-30T06:06:14.200Z,3.98
2023-01-30T06:08:42.456Z,3.98
2023-01-30T06:11:13.861Z,3.95
2023-01-30T06:13:41.681Z,3.99
2023-01-30T06:16:12.030Z,4.00
2023-01-30T06:18:40.283Z,3.91
2023-01-30T06:21:08.776Z,3.93
2023-01-30T06:23:36.569Z,3.92
2023-01-30T06:26:06.262Z,3.97
2023-01-30T06:28:37.501Z,3.91
2023-01-30T06:31:07.913Z,3.90
2023-01-30T06:33:35.732Z,3.95
2023-01-30T06:36:03.577Z,4.00
2023-01-30T06:38:31.342Z,4.04
2023-01-30T06:40:59.013Z,4.05
2023-01-30T06:43:26.683Z,3.90
2023-01-30T06:45:55.714Z,3.82
2023-01-30T06:48:23.412Z,3.84
2023-01-30T06:50:51.130Z,3.80
2023-01-30T06:53:18.933Z,3.91
2023-01-30T06:55:47.776Z,3.97
2023-01-30T06:58:16.060Z,4.02
2023-01-30T07:00:44.303Z,4.03
2023-01-30T07:03:14.597Z,4.06
2023-01-30T07:05:43.293Z,4.15
2023-01-30T07:08:11.768Z,4.19
2023-01-30T07:10:39.923Z,4.19
2023-01-30T07:13:10.888Z,4.23
2023-01-30T07:15:38.815Z,4.23
2023-01-30T07:18:06.598Z,4.29
2023-01-30T07:20:35.870Z,4.34
2023-01-30T07:23:03.569Z,4.38
2023-01-30T07:25:31.366Z,4.52
2023-01-30T07:28:00.954Z,4.49
2023-01-30T07:30:33.103Z,4.43
2023-01-30T07:33:03.658Z,4.47
2023-01-30T07:35:33.134Z,4.48
2023-01-30T07:38:02.153Z,4.50
2023-01-30T07:40:29.862Z,4.44
2023-01-30T07:42:59.002Z,4.43
2023-01-30T07:45:26.861Z,4.52
2023-01-30T07:47:55.137Z,4.48
2023-01-30T07:50:22.871Z,4.40
2023-01-30T07:52:50.560Z,4.40
2023-01-30T07:55:19.999Z,4.46
2023-01-30T07:57:47.991Z,4.51
2023-01-30T08:00:16.993Z,4.58
2023-01-30T08:02:44.961Z,4.62
2023-01-30T08:05:12.672Z,4.65
2023-01-30T08:07:40.695Z,4.72
2023-01-30T08:10:11.876Z,4.75
2023-01-30T08:12:42.271Z,4.77
2023-01-30T08:15:11.273Z,4.81
2023-01-30T08:17:39.006Z,4.79
2023-01-30T08:20:07.859Z,4.78
2023-01-30T08:22:35.584Z,4.83
2023-01-30T08:25:03.343Z,4.85
2023-01-30T08:27:31.028Z,4.83
2023-01-30T08:30:00.193Z,4.77
2023-01-30T08:32:27.948Z,4.75
2023-01-30T08:34:55.657Z,4.82
2023-01-30T08:37:23.414Z,4.90
2023-01-30T08:39:51.153Z,4.88
2023-01-30T08:42:18.867Z,4.96
2023-01-30T08:44:46.705Z,5.00
2023-01-30T08:47:15.780Z,5.02
2023-01-30T08:49:43.445Z,5.00
2023-01-30T08:52:11.431Z,5.06
2023-01-30T08:54:39.095Z,5.08
2023-01-30T08:57:06.757Z,5.16
2023-01-30T08:59:34.663Z,5.21
2023-01-30T09:02:02.424Z,5.20
2023-01-30T09:04:32.172Z,5.19
2023-01-30T09:07:00.003Z,5.19
2023-01-30T09:09:29.605Z,5.17
2023-01-30T09:11:57.357Z,5.18
2023-01-30T09:14:25.067Z,5.17
2023-01-30T09:16:55.597Z,5.18
2023-01-30T09:19:23.825Z,5.09
2023-01-30T09:21:53.799Z,5.13
2023-01-30T09:24:26.241Z,5.15
2023-01-30T09:26:54.296Z,5.28
2023-01-30T09:29:22.663Z,5.37
2023-01-30T09:31:50.867Z,5.39
2023-01-30T09:34:18.613Z,5.35
2023-01-30T09:36:47.060Z,5.37
2023-01-30T09:39:16.838Z,5.38
2023-01-30T09:42:03.397Z,5.35
2023-01-30T09:45:05.080Z,5.35
2023-01-30T09:47:55.450Z,5.37
2023-01-30T09:50:45.638Z,5.25
2023-01-30T09:53:25.210Z,5.29
2023-01-30T09:55:59.011Z,5.30
2023-01-30T09:58:34.238Z,5.33
2023-01-30T10:01:12.976Z,5.25
2023-01-30T10:03:56.383Z,5.20
2023-01-30T10:06:24.140Z,5.32
2023-01-30T10:08:58.112Z,5.48
2023-01-30T10:11:41.406Z,5.57
2023-01-30T10:14:21.636Z,5.64
2023-01-30T10:17:01.312Z,5.72
2023-01-30T10:19:55.559Z,5.89
2023-01-30T10:22:38.662Z,6.03
2023-01-30T10:25:18.783Z,6.25
2023-01-30T10:27:53.544Z,7.22
2023-01-30T10:30:22.188Z,7.67
2023-01-30T10:32:55.243Z,7.60
2023-01-30T10:35:27.070Z,7.46
2023-01-30T10:38:01.993Z,7.35
2023-01-30T10:40:35.827Z,7.23
2023-01-30T10:43:16.016Z,6.95
2023-01-30T10:45:51.721Z,6.89
2023-01-30T10:48:46.337Z,7.02
2023-01-30T10:51:22.644Z,7.07
2023-01-30T10:53:57.515Z,6.94
2023-01-30T10:56:36.752Z,6.86
2023-01-30T10:59:22.694Z,6.51
2023-01-30T11:01:59.631Z,6.42
2023-01-30T11:04:32.705Z,6.30
2023-01-30T11:07:01.815Z,6.24
2023-01-30T11:09:43.853Z,6.17
2023-01-30T11:12:11.664Z,6.05
2023-01-30T11:14:55.289Z,6.03
2023-01-30T11:17:31.204Z,6.06
2023-01-30T11:20:06.967Z,6.04
2023-01-30T11:22:37.585Z,6.09
2023-01-30T11:25:08.021Z,6.13
2023-01-30T11:27:36.277Z,6.20
2023-01-30T11:30:09.012Z,6.44
2023-01-30T11:32:37.215Z,6.51
2023-01-30T11:35:27.208Z,6.53
2023-01-30T11:37:55.042Z,6.66
2023-01-30T11:40:29.647Z,7.33
2023-01-30T11:43:04.313Z,8.50
2023-01-30T11:45:39.014Z,10.70
2023-01-30T11:48:31.623Z,10.28
2023-01-30T11:51:04.968Z,9.18
2023-01-30T11:53:37.871Z,8.59
2023-01-30T11:56:11.111Z,8.11
2023-01-30T11:58:41.870Z,7.87
2023-01-30T12:01:12.782Z,7.74
2023-01-30T12:03:48.262Z,7.66
2023-01-30T12:06:23.507Z,7.65
2023-01-30T12:08:54.806Z,7.88
2023-01-30T12:11:29.868Z,8.02
2023-01-30T12:14:17.691Z,8.19
2023-01-30T12:16:55.154Z,8.15
2023-01-30T12:19:43.037Z,8.04
2023-01-30T12:22:20.378Z,7.77
2023-01-30T12:24:59.114Z,8.03
2023-01-30T12:27:38.435Z,8.62
2023-01-30T12:30:17.205Z,8.95
2023-01-30T12:32:46.798Z,9.04
2023-01-30T12:35:17.711Z,9.18
2023-01-30T12:37:57.965Z,9.64
2023-01-30T12:40:40.553Z,9.55
2023-01-30T12:43:33.928Z,9.06
2023-01-30T12:46:13.007Z,8.57
2023-01-30T12:49:13.728Z,8.46
2023-01-30T12:51:56.359Z,8.99
2023-01-30T12:54:41.364Z,9.11
2023-01-30T12:57:19.603Z,8.99
2023-01-30T12:59:58.787Z,8.78
2023-01-30T13:02:53.131Z,8.41
2023-01-30T13:05:38.548Z,8.11
2023-01-30T13:08:23.948Z,7.94
2023-01-30T13:10:55.747Z,7.85
2023-01-30T13:13:35.691Z,7.71
2023-01-30T13:16:11.694Z,7.54
2023-01-30T13:18:48.138Z,7.37
2023-01-30T13:21:22.182Z,7.20
2023-01-30T13:24:04.631Z,7.14
2023-01-30T13:26:35.896Z,7.09
2023-01-30T13:29:07.669Z,7.04
2023-01-30T13:31:40.206Z,7.01
2023-01-30T13:34:13.064Z,7.03
2023-01-30T13:36:48.392Z,7.06
2023-01-30T13:39:24.901Z,7.07
2023-01-30T13:41:56.621Z,7.21
2023-01-30T13:44:29.105Z,7.48
2023-01-30T13:46:59.564Z,7.67
2023-01-30T13:49:38.852Z,7.76
2023-01-30T13:52:18.041Z,7.75
2023-01-30T13:54:56.556Z,7.68
2023-01-30T13:57:33.541Z,7.65
2023-01-30T14:00:28.129Z,7.65
2023-01-30T14:03:31.699Z,7.64
2023-01-30T14:06:14.578Z,7.54
2023-01-30T14:08:54.983Z,7.57
2023-01-30T14:11:47.841Z,7.53
2023-01-30T14:14:31.500Z,7.59
2023-01-30T14:17:10.139Z,7.52
2023-01-30T14:19:41.693Z,7.53
2023-01-30T14:22:25.844Z,7.51
2023-01-30T14:25:36.999Z,7.40
2023-01-30T14:28:51.090Z,7.28
2023-01-30T14:31:51.938Z,7.14
2023-01-30T14:34:51.052Z,7.15
2023-01-30T14:37:57.404Z,7.20
2023-01-30T14:40:32.593Z,7.17
2023-01-30T14:43:48.524Z,7.25
2023-01-30T14:46:54.290Z,7.29
2023-01-30T14:49:30.525Z,7.32
2023-01-30T14:51:58.563Z,7.30
2023-01-30T14:54:41.851Z,7.28
2023-01-30T14:57:20.274Z,7.33
2023-01-30T15:00:13.103Z,7.30
2023-01-30T15:02:44.824Z,7.30
2023-01-30T15:05:16.276Z,7.36
2023-01-30T15:07:48.224Z,7.44
2023-01-30T15:10:39.721Z,7.39
2023-01-30T15:13:32.001Z,7.37
2023-01-30T15:16:10.967Z,7.31
2023-01-30T15:19:02.655Z,7.33
2023-01-30T15:21:46.616Z,7.35
2023-01-30T15:24:41.581Z,7.31
2023-01-30T15:27:18.082Z,7.23
2023-01-30T15:30:18.071Z,7.20
2023-01-30T15:32:46.217Z,7.18
2023-01-30T15:35:25.681Z,7.14
2023-01-30T15:37:56.227Z,7.07
2023-01-30T15:40:26.417Z,6.97
2023-01-30T15:43:05.186Z,6.97
2023-01-30T15:45:41.192Z,6.92
2023-01-30T15:48:27.557Z,6.92
2023-01-30T15:51:00.210Z,6.91
2023-01-30T15:53:31.392Z,6.95
2023-01-30T15:56:01.444Z,6.97
2023-01-30T15:58:30.525Z,6.93
2023-01-30T16:01:02.008Z,6.99
2023-01-30T16:03:34.250Z,6.96
2023-01-30T16:06:04.482Z,6.99
2023-01-30T16:08:34.332Z,6.99
2023-01-30T16:11:02.540Z,7.00
2023-01-30T16:13:33.212Z,7.00
2023-01-30T16:16:08.120Z,6.95
2023-01-30T16:18:41.863Z,6.96
2023-01-30T16:21:18.194Z,6.89
2023-01-30T16:23:56.926Z,6.84
2023-01-30T16:26:24.987Z,6.79
2023-01-30T16:29:01.181Z,6.73
2023-01-30T16:31:33.233Z,6.72
2023-01-30T16:34:01.596Z,6.67
2023-01-30T16:36:40.239Z,6.69
2023-01-30T16:39:32.536Z,6.63
2023-01-30T16:42:02.016Z,6.66
2023-01-30T16:44:30.890Z,6.69
2023-01-30T16:47:01.974Z,6.68
2023-01-30T16:49:45.385Z,6.67
2023-01-30T16:52:20.068Z,6.65
2023-01-30T16:54:50.626Z,6.64
2023-01-30T16:57:28.647Z,6.63
2023-01-30T16:59:56.699Z,6.60
2023-01-30T17:02:29.832Z,6.64
2023-01-30T17:05:11.288Z,6.70
2023-01-30T17:07:40.358Z,6.72
2023-01-30T17:10:51.318Z,6.75
2023-01-30T17:13:34.074Z,6.72
2023-01-30T17:16:23.543Z,6.79
2023-01-30T17:18:52.457Z,6.75
2023-01-30T17:21:21.049Z,6.70
2023-01-30T17:23:53.334Z,6.77
2023-01-30T17:26:21.169Z,6.72
2023-01-30T17:28:48.949Z,6.72
2023-01-30T17:31:18.760Z,6.68
2023-01-30T17:33:46.698Z,6.65
2023-01-30T17:36:23.019Z,6.64
2023-01-30T17:38:53.343Z,6.60
2023-01-30T17:41:22.517Z,6.55
2023-01-30T17:43:50.996Z,6.53
2023-01-30T17:46:19.211Z,6.56
2023-01-30T17:48:47.126Z,6.50
2023-01-30T17:51:14.949Z,6.42
2023-01-30T17:53:42.779Z,6.47
2023-01-30T17:56:18.772Z,6.49
2023-01-30T17:58:46.480Z,6.52
2023-01-30T18:01:16.233Z,6.61
2023-01-30T18:03:45.009Z,6.60
2023-01-30T18:06:15.074Z,6.65
2023-01-30T18:08:43.409Z,6.65
2023-01-30T18:11:12.104Z,6.67
2023-01-30T18:13:42.519Z,6.71
2023-01-30T18:16:16.091Z,6.70
2023-01-30T18:18:43.881Z,6.68
2023-01-30T18:21:11.664Z,6.68
2023-01-30T18:23:39.510Z,6.68
2023-01-30T18:26:07.306Z,6.73
2023-01-30T18:28:34.971Z,6.77
2023-01-30T18:31:04.265Z,6.83
2023-01-30T18:33:33.336Z,6.86
2023-01-30T18:36:04.144Z,6.89
2023-01-30T18:38:31.979Z,6.92
2023-01-30T18:40:59.669Z,6.97
2023-01-30T18:43:27.391Z,7.03
2023-01-30T18:46:04.753Z,6.94
2023-01-30T18:48:32.679Z,6.99
2023-01-30T18:51:08.360Z,6.95
2023-01-30T18:53:36.672Z,6.92
2023-01-30T18:56:05.531Z,6.88
2023-01-30T18:58:33.520Z,6.90
2023-01-30T19:01:01.794Z,6.89
2023-01-30T19:03:31.178Z,6.90
2023-01-30T19:06:02.047Z,6.84
2023-01-30T19:08:29.869Z,6.94
2023-01-30T19:11:24.057Z,6.95
2023-01-30T19:13:50.779Z,6.92
2023-01-30T19:16:19.142Z,6.89
2023-01-30T19:18:49.586Z,6.86
2023-01-30T19:21:17.606Z,6.90
2023-01-30T19:23:45.653Z,6.96
2023-01-30T19:26:13.691Z,6.98
2023-01-30T19:28:44.480Z,6.99
2023-01-30T19:31:14.922Z,7.04
2023-01-30T19:33:43.211Z,7.07
2023-01-30T19:36:15.201Z,7.07
2023-01-30T19:38:44.079Z,7.10
2023-01-30T19:41:12.461Z,7.06
2023-01-30T19:43:40.648Z,7.03
2023-01-30T19:46:10.891Z,7.03
2023-01-30T19:48:39.142Z,7.00
2023-01-30T19:51:13.990Z,7.02
2023-01-30T19:53:42.560Z,7.04
2023-01-30T19:56:12.042Z,7.10
2023-01-30T19:58:41.584Z,7.15
2023-01-30T20:01:10.949Z,7.15
2023-01-30T20:03:39.358Z,7.03
2023-01-30T20:06:08.836Z,7.00
2023-01-30T20:08:38.452Z,7.04
2023-01-30T20:11:07.374Z,7.08
2023-01-30T20:13:36.154Z,7.06
2023-01-30T20:16:06.505Z,7.06
2023-01-30T20:18:37.377Z,7.10
2023-01-30T20:21:07.164Z,7.11
2023-01-30T20:23:35.223Z,7.09
2023-01-30T20:26:06.406Z,7.09
2023-01-30T20:28:34.832Z,7.16
2023-01-30T20:31:08.941Z,7.18
2023-01-30T20:33:37.027Z,7.13
2023-01-30T20:36:07.134Z,7.09
2023-01-30T20:38:37.127Z,7.04
2023-01-30T20:41:09.290Z,7.04
2023-01-30T20:43:38.468Z,7.09
2023-01-30T20:46:08.087Z,7.07
2023-01-30T20:48:37.272Z,7.09
2023-01-30T20:51:06.613Z,7.10
2023-01-30T20:53:34.729Z,7.01
2023-01-30T20:56:02.715Z,7.06
2023-01-30T20:58:32.239Z,7.09
2023-01-30T21:01:08.405Z,7.13
2023-01-30T21:03:36.327Z,7.19
2023-01-30T21:06:04.413Z,7.03
2023-01-30T21:08:32.387Z,7.03
2023-01-30T21:11:08.423Z,7.09
2023-01-30T21:13:38.417Z,7.12
2023-01-30T21:16:08.831Z,7.15
2023-01-30T21:18:39.949Z,7.18
2023-01-30T21:21:08.380Z,7.22
2023-01-30T21:23:37.000Z,7.30
2023-01-30T21:26:09.321Z,7.31
2023-01-30T21:28:39.170Z,7.30
2023-01-30T21:31:08.792Z,7.30
2023-01-30T21:33:36.751Z,7.22
2023-01-30T21:36:05.280Z,7.15
2023-01-30T21:38:50.336Z,7.18
2023-01-30T21:41:37.847Z,7.12
2023-01-30T21:44:07.536Z,7.11
2023-01-30T21:46:39.014Z,7.15
2023-01-30T21:49:07.401Z,7.16
2023-01-30T21:51:36.621Z,7.14
2023-01-30T21:54:05.110Z,7.06
2023-01-30T21:56:33.383Z,7.07
2023-01-30T21:59:03.028Z,7.11
2023-01-30T22:01:33.173Z,7.15
2023-01-30T22:04:01.339Z,7.16
2023-01-30T22:06:29.250Z,7.15
2023-01-30T22:08:58.209Z,7.17
2023-01-30T22:11:26.602Z,7.22
2023-01-30T22:13:54.912Z,7.17
2023-01-30T22:16:24.870Z,7.15
2023-01-30T22:18:55.311Z,7.16
2023-01-30T22:21:24.553Z,7.14
2023-01-30T22:23:54.002Z,7.12
2023-01-30T22:26:24.067Z,7.13
2023-01-30T22:28:54.473Z,7.11
2023-01-30T22:31:22.908Z,7.08
2023-01-30T22:33:54.093Z,7.04
2023-01-30T22:36:24.678Z,7.02
2023-01-30T22:38:52.613Z,7.02
2023-01-30T22:41:22.125Z,7.06
2023-01-30T22:43:55.255Z,7.09
2023-01-30T22:46:25.009Z,7.07
2023-01-30T22:48:54.731Z,7.06
2023-01-30T22:51:23.732Z,7.08
2023-01-30T22:53:53.107Z,7.04
2023-01-30T22:56:23.080Z,7.04
2023-01-30T22:58:51.091Z,6.98
2023-01-30T23:01:20.496Z,6.95
2023-01-30T23:03:49.685Z,6.93
2023-01-30T23:06:19.046Z,6.88
2023-01-30T23:08:48.685Z,6.85
2023-01-30T23:11:18.908Z,6.75
2023-01-30T23:13:48.619Z,6.75
2023-01-30T23:16:17.561Z,6.71
2023-01-30T23:18:56.696Z,6.69
2023-01-30T23:21:28.003Z,6.58
2023-01-30T23:23:57.717Z,6.50
2023-01-30T23:26:27.509Z,6.45
2023-01-30T23:28:55.233Z,6.43
2023-01-30T23:31:30.918Z,6.46
2023-01-30T23:34:00.773Z,6.41
2023-01-30T23:36:30.775Z,6.51
2023-01-30T23:38:59.817Z,6.49
2023-01-30T23:41:29.621Z,6.48
2023-01-30T23:43:58.253Z,6.43
2023-01-30T23:46:27.994Z,6.45
2023-01-30T23:48:57.130Z,6.51
2023-01-30T23:51:27.095Z,6.56
2023-01-30T23:53:56.688Z,6.63
2023-01-30T23:56:26.689Z,6.68
2023-01-30T23:58:54.535Z,6.74
